sensor_id;sensor_type;location;lat;lon;timestamp;pressure;altitude;pressure_sealevel;temperature;humidity
27864;BME280;15980;51.092;13.916;2023-04-02T00:05:30;97799.97;;;7.09;100.00
27864;BME280;15980;51.092;13.916;2023-04-02T00:15:31;97810.09;;;7.08;100.00
27864;BME280;15980;51.092;13.916;2023-04-02T00:25:35;97831.72;;;6.80;100.00
27864;BME280;15980;51.092;13.916;2023-04-02T00:35:37;97848.72;;;6.65;100.00
27864;BME280;15980;51.092;13.916;2023-04-02T00:45:38;97855.03;;;6.36;100.00
27864;BME280;15980;51.092;13.916;2023-04-02T00:55:40;97872.00;;;6.21;100.00
27864;BME280;15980;51.092;13.916;2023-04-02T01:05:46;97873.75;;;5.96;100.00
27864;BME280;15980;51.092;13.916;2023-04-02T01:16:16;97895.94;;;5.77;100.00
27864;BME280;15980;51.092;13.916;2023-04-02T01:26:53;97912.47;;;5.72;100.00
27864;BME280;15980;51.092;13.916;2023-04-02T01:46:55;97948.63;;;5.26;100.00
27864;BME280;15980;51.092;13.916;2023-04-02T01:56:55;97977.44;;;5.01;100.00
27864;BME280;15980;51.092;13.916;2023-04-02T02:06:57;97988.78;;;5.03;100.00
27864;BME280;15980;51.092;13.916;2023-04-02T02:17:00;97999.97;;;4.76;100.00
27864;BME280;15980;51.092;13.916;2023-04-02T02:27:30;98020.75;;;4.63;100.00
27864;BME280;15980;51.092;13.916;2023-04-02T02:37:28;98034.16;;;4.59;100.00
27864;BME280;15980;51.092;13.916;2023-04-02T02:47:32;98049.84;;;4.62;100.00
27864;BME280;15980;51.092;13.916;2023-04-02T02:57:39;98061.19;;;4.64;100.00
27864;BME280;15980;51.092;13.916;2023-04-02T03:07:42;98089.41;;;4.37;100.00
27864;BME280;15980;51.092;13.916;2023-04-02T03:17:54;98108.75;;;4.45;100.00
27864;BME280;15980;51.092;13.916;2023-04-02T03:28:03;98127.31;;;4.12;100.00
27864;BME280;15980;51.092;13.916;2023-04-02T03:48:23;98162.00;;;3.92;100.00
27864;BME280;15980;51.092;13.916;2023-04-02T04:08:40;98215.47;;;3.69;100.00
27864;BME280;15980;51.092;13.916;2023-04-02T04:18:52;98228.72;;;3.71;100.00
27864;BME280;15980;51.092;13.916;2023-04-02T04:29:10;98257.44;;;3.50;100.00
27864;BME280;15980;51.092;13.916;2023-04-02T04:39:17;98288.06;;;3.50;100.00
27864;BME280;15980;51.092;13.916;2023-04-02T04:49:26;98321.22;;;3.33;100.00
27864;BME280;15980;51.092;13.916;2023-04-02T04:59:34;98320.00;;;3.12;100.00
27864;BME280;15980;51.092;13.916;2023-04-02T05:19:52;98369.06;;;2.97;100.00
27864;BME280;15980;51.092;13.916;2023-04-02T05:29:59;98407.47;;;2.85;100.00
27864;BME280;15980;51.092;13.916;2023-04-02T05:55:41;98453.06;;;2.64;100.00
27864;BME280;15980;51.092;13.916;2023-04-02T06:05:44;98466.22;;;2.52;100.00
27864;BME280;15980;51.092;13.916;2023-04-02T06:15:45;98486.28;;;2.51;100.00
27864;BME280;15980;51.092;13.916;2023-04-02T06:26:10;98511.16;;;2.53;100.00
27864;BME280;15980;51.092;13.916;2023-04-02T06:36:14;98519.28;;;2.34;100.00
27864;BME280;15980;51.092;13.916;2023-04-02T06:46:30;98550.69;;;2.54;100.00
27864;BME280;15980;51.092;13.916;2023-04-02T07:06:39;98595.41;;;2.51;100.00
27864;BME280;15980;51.092;13.916;2023-04-02T07:16:40;98596.41;;;2.79;100.00
27864;BME280;15980;51.092;13.916;2023-04-02T07:26:41;98611.72;;;2.89;99.73
27864;BME280;15980;51.092;13.916;2023-04-02T07:36:41;98634.84;;;2.63;99.26
27864;BME280;15980;51.092;13.916;2023-04-02T07:46:42;98654.25;;;2.70;97.54
27864;BME280;15980;51.092;13.916;2023-04-02T07:56:42;98664.88;;;2.66;96.62
27864;BME280;15980;51.092;13.916;2023-04-02T08:06:42;98689.94;;;2.77;94.99
27864;BME280;15980;51.092;13.916;2023-04-02T08:16:48;98727.75;;;2.63;92.02
27864;BME280;15980;51.092;13.916;2023-04-02T08:26:49;98734.78;;;2.64;92.72
27864;BME280;15980;51.092;13.916;2023-04-02T08:36:49;98749.53;;;2.77;91.54
27864;BME280;15980;51.092;13.916;2023-04-02T09:07:18;98797.59;;;2.66;91.46
27864;BME280;15980;51.092;13.916;2023-04-02T09:17:23;98812.13;;;2.75;91.09
27864;BME280;15980;51.092;13.916;2023-04-02T09:27:30;98851.13;;;2.45;92.44
27864;BME280;15980;51.092;13.916;2023-04-02T09:37:30;98848.63;;;2.54;91.93
27864;BME280;15980;51.092;13.916;2023-04-02T09:47:31;98871.78;;;2.70;91.92
27864;BME280;15980;51.092;13.916;2023-04-02T09:57:31;98884.63;;;3.18;90.14
27864;BME280;15980;51.092;13.916;2023-04-02T10:07:35;98890.97;;;3.08;89.03
27864;BME280;15980;51.092;13.916;2023-04-02T10:17:36;98903.44;;;2.75;88.01
27864;BME280;15980;51.092;13.916;2023-04-02T10:37:48;98938.94;;;2.73;88.56
27864;BME280;15980;51.092;13.916;2023-04-02T10:47:59;98945.75;;;3.05;88.26
27864;BME280;15980;51.092;13.916;2023-04-02T10:58:07;98955.06;;;3.23;87.78
27864;BME280;15980;51.092;13.916;2023-04-02T11:08:22;98969.78;;;3.69;87.19
27864;BME280;15980;51.092;13.916;2023-04-02T11:18:33;98991.66;;;3.54;85.95
27864;BME280;15980;51.092;13.916;2023-04-02T11:28:33;98998.94;;;3.83;86.92
27864;BME280;15980;51.092;13.916;2023-04-02T11:38:49;99007.97;;;4.02;85.87
27864;BME280;15980;51.092;13.916;2023-04-02T11:48:49;99024.69;;;3.61;86.20
27864;BME280;15980;51.092;13.916;2023-04-02T12:19:18;99043.31;;;4.82;82.66
27864;BME280;15980;51.092;13.916;2023-04-02T12:29:25;99066.56;;;4.51;81.66
27864;BME280;15980;51.092;13.916;2023-04-02T12:39:25;99091.84;;;4.27;81.69
27864;BME280;15980;51.092;13.916;2023-04-02T12:49:39;99084.50;;;4.70;79.93
27864;BME280;15980;51.092;13.916;2023-04-02T12:59:41;99103.13;;;4.82;78.90
27864;BME280;15980;51.092;13.916;2023-04-02T13:09:47;99107.47;;;4.83;78.22
27864;BME280;15980;51.092;13.916;2023-04-02T13:19:48;99130.97;;;4.26;80.19
27864;BME280;15980;51.092;13.916;2023-04-02T13:29:48;99133.72;;;4.69;80.54
27864;BME280;15980;51.092;13.916;2023-04-02T13:39:48;99145.50;;;4.40;79.64
27864;BME280;15980;51.092;13.916;2023-04-02T13:49:49;99162.69;;;4.31;78.60
27864;BME280;15980;51.092;13.916;2023-04-02T13:59:49;99165.66;;;4.05;80.02
27864;BME280;15980;51.092;13.916;2023-04-02T14:10:19;99182.31;;;4.23;77.02
27864;BME280;15980;51.092;13.916;2023-04-02T14:41:08;99205.72;;;4.19;80.71
27864;BME280;15980;51.092;13.916;2023-04-02T15:01:37;99218.91;;;4.30;79.34
27864;BME280;15980;51.092;13.916;2023-04-02T15:12:21;99217.81;;;4.31;79.79
27864;BME280;15980;51.092;13.916;2023-04-02T15:32:23;99243.22;;;4.17;77.83
27864;BME280;15980;51.092;13.916;2023-04-02T15:42:38;99252.94;;;4.23;76.72
27864;BME280;15980;51.092;13.916;2023-04-02T15:52:55;99266.03;;;4.50;77.44
27864;BME280;15980;51.092;13.916;2023-04-02T16:23:32;99299.25;;;4.70;74.24
27864;BME280;15980;51.092;13.916;2023-04-02T16:44:08;99316.03;;;4.49;73.80
27864;BME280;15980;51.092;13.916;2023-04-02T17:14:53;99346.53;;;4.40;76.18
27864;BME280;15980;51.092;13.916;2023-04-02T17:24:57;99366.69;;;4.34;75.83
27864;BME280;15980;51.092;13.916;2023-04-02T18:16:36;99404.34;;;4.07;78.26
27864;BME280;15980;51.092;13.916;2023-04-02T18:46:52;99436.44;;;4.00;78.96
27864;BME280;15980;51.092;13.916;2023-04-02T18:56:54;99451.94;;;3.94;80.09
27864;BME280;15980;51.092;13.916;2023-04-02T19:07:03;99463.06;;;3.88;80.24
27864;BME280;15980;51.092;13.916;2023-04-02T19:37:54;99486.44;;;3.84;81.63
27864;BME280;15980;51.092;13.916;2023-04-02T19:48:01;99497.25;;;3.89;81.61
27864;BME280;15980;51.092;13.916;2023-04-02T19:58:02;99493.19;;;3.86;81.67
27864;BME280;15980;51.092;13.916;2023-04-02T20:08:02;99499.44;;;3.87;81.84
27864;BME280;15980;51.092;13.916;2023-04-02T20:18:03;99495.34;;;3.89;80.78
27864;BME280;15980;51.092;13.916;2023-04-02T20:28:03;99519.56;;;3.91;80.77
27864;BME280;15980;51.092;13.916;2023-04-02T20:38:04;99520.09;;;3.93;79.84
27864;BME280;15980;51.092;13.916;2023-04-02T20:48:04;99531.22;;;3.91;79.13
27864;BME280;15980;51.092;13.916;2023-04-02T20:58:04;99546.97;;;3.84;78.93
27864;BME280;15980;51.092;13.916;2023-04-02T21:08:05;99553.75;;;3.82;77.41
27864;BME280;15980;51.092;13.916;2023-04-02T21:18:05;99549.44;;;3.75;76.65
27864;BME280;15980;51.092;13.916;2023-04-02T21:28:05;99563.81;;;3.76;75.86
27864;BME280;15980;51.092;13.916;2023-04-02T21:38:06;99587.16;;;3.77;75.47
27864;BME280;15980;51.092;13.916;2023-04-02T21:48:06;99571.16;;;3.60;74.21
27864;BME280;15980;51.092;13.916;2023-04-02T21:58:06;99588.53;;;3.54;73.53
27864;BME280;15980;51.092;13.916;2023-04-02T22:08:07;99600.22;;;3.50;72.83
27864;BME280;15980;51.092;13.916;2023-04-02T22:18:07;99605.38;;;3.51;73.55
27864;BME280;15980;51.092;13.916;2023-04-02T22:28:07;99616.47;;;3.44;72.68
27864;BME280;15980;51.092;13.916;2023-04-02T22:38:08;99627.84;;;3.26;72.57
27864;BME280;15980;51.092;13.916;2023-04-02T22:48:08;99636.25;;;3.20;71.81
27864;BME280;15980;51.092;13.916;2023-04-02T22:58:08;99651.41;;;3.05;70.65
27864;BME280;15980;51.092;13.916;2023-04-02T23:08:09;99666.25;;;2.88;69.21
27864;BME280;15980;51.092;13.916;2023-04-02T23:18:09;99679.38;;;2.53;67.32
27864;BME280;15980;51.092;13.916;2023-04-02T23:28:11;99677.22;;;2.50;68.03
27864;BME280;15980;51.092;13.916;2023-04-02T23:38:12;99687.34;;;2.23;68.45
27864;BME280;15980;51.092;13.916;2023-04-02T23:48:12;99681.34;;;2.16;68.76
27864;BME280;15980;51.092;13.916;2023-04-02T23:58:12;99690.72;;;2.03;69.10
